Time;durP1;ratioP1;P1;durP2;ratioP2;P2;SDS_P1;SDS_P2;PMS_P1;PMS_P2;Temp;Humidity;BMP_temperature;BMP_pressure;BME280_temperature;BME280_humidity;BME280_pressure;Samples;Min_cycle;Max_cycle;Signal;HPM_P1;HPM_P2
2022/08/13 00:00:34;;;;;;;6.30;3.75;;;21.30;87.50;;;;;;4984148;28;20069;-85
2022/08/13 00:03:13;;;;;;;7.15;3.90;;;21.30;86.50;;;;;;4999513;28;20121;-85
2022/08/13 00:05:39;;;;;;;9.00;3.63;;;;;;;;;;4999756;28;20438;-84
2022/08/13 00:08:17;;;;;;;7.93;3.80;;;21.30;84.60;;;;;;4999293;28;20046;-84
2022/08/13 00:10:46;;;;;;;12.30;3.50;;;;;;;;;;5000283;28;20038;-84
2022/08/13 00:13:25;;;;;;;11.43;3.60;;;21.40;82.50;;;;;;4998932;28;20046;-85
2022/08/13 00:16:06;;;;;;;7.22;3.70;;;;;;;;;;4996929;28;20054;-84
2022/08/13 00:18:54;;;;;;;;;;;;;;;;;;;;;
2022/08/13 00:21:50;;;;;;;6.78;3.72;;;21.40;81.50;;;;;;4999114;28;20057;-84
2022/08/13 00:24:36;;;;;;;7.10;3.30;;;21.40;81.30;;;;;;4983227;28;20046;-85
2022/08/13 00:27:30;;;;;;;7.55;3.53;;;21.30;81.10;;;;;;4984959;28;20108;-84
2022/08/13 00:30:48;;;;;;;9.65;3.55;;;21.30;80.80;;;;;;4984018;28;20458;-85
2022/08/13 00:34:43;;;;;;;8.30;3.35;;;21.30;80.40;;;;;;5000944;28;20050;-85
2022/08/13 00:37:12;;;;;;;6.88;3.40;;;21.30;80.30;;;;;;4957814;28;20081;-84
2022/08/13 00:40:59;;;;;;;;;;;;;;;;;;;;;
2022/08/13 00:51:56;;;;;;;6.53;2.90;;;21.10;79.70;;;;;;4917556;29;20080;-84
2022/08/13 00:54:52;;;;;;;5.57;3.20;;;21.10;79.50;;;;;;4885834;29;20052;-84
2022/08/13 00:57:45;;;;;;;8.43;2.85;;;21.00;84.40;;;;;;4884668;29;20056;-86
2022/08/13 01:00:38;;;;;;;5.90;3.05;;;21.00;79.60;;;;;;4900914;29;20087;-86
2022/08/13 01:04:01;;;;;;;7.53;3.40;;;20.90;79.70;;;;;;4903200;29;20165;-85
2022/08/13 01:10:20;;;;;;;;;;;;;;;;;;;;;
2022/08/13 01:13:11;;;;;;;9.40;3.15;;;20.80;79.80;;;;;;4897197;29;20060;-86
2022/08/13 01:19:09;;;;;;;5.90;3.30;;;20.70;79.70;;;;;;4853092;29;20065;-85
2022/08/13 01:22:12;;;;;;;7.10;3.00;;;;;;;;;;4848015;29;20492;-86
2022/08/13 01:25:20;;;;;;;8.85;3.25;;;20.60;80.00;;;;;;4860276;29;20045;-85
2022/08/13 01:28:23;;;;;;;9.40;3.45;;;20.50;80.20;;;;;;4879788;29;20091;-85
2022/08/13 01:31:25;;;;;;;7.85;3.53;;;20.40;80.30;;;;;;4882265;29;20139;-85
2022/08/13 01:34:12;;;;;;;10.38;3.50;;;20.40;80.30;;;;;;4881834;29;20109;-85
2022/08/13 01:37:29;;;;;;;7.63;3.10;;;20.40;80.50;;;;;;4866527;29;20056;-85
2022/08/13 01:40:18;;;;;;;5.65;3.42;;;20.30;80.70;;;;;;4881630;29;20057;-86
2022/08/13 01:42:50;;;;;;;8.77;3.47;;;20.30;80.80;;;;;;4864517;29;20056;-85
2022/08/13 01:45:29;;;;;;;7.28;3.10;;;20.20;80.80;;;;;;4905562;29;20129;-85
2022/08/13 01:50:56;;;;;;;6.45;3.03;;;20.10;81.00;;;;;;4997252;28;20125;-86
2022/08/13 01:56:41;;;;;;;4.57;3.10;;;;;;;;;;4978293;28;20046;-86
2022/08/13 01:59:21;;;;;;;6.68;3.13;;;20.00;81.40;;;;;;4978269;28;20066;-86
2022/08/13 02:02:05;;;;;;;5.32;3.45;;;20.00;81.50;;;;;;4962766;28;20058;-85
2022/08/13 02:05:10;;;;;;;12.20;3.30;;;19.90;81.50;;;;;;4983712;28;20055;-85
2022/08/13 02:08:05;;;;;;;9.38;3.35;;;19.90;81.60;;;;;;4984063;28;20046;-86
2022/08/13 02:10:54;;;;;;;7.35;3.30;;;19.80;81.70;;;;;;4983861;28;20117;-85
2022/08/13 02:13:48;;;;;;;7.82;3.22;;;19.80;81.70;;;;;;4944209;29;20055;-85
2022/08/13 02:16:15;;;;;;;7.03;3.30;;;;;;;;;;4927911;29;20164;-85
2022/08/13 02:18:57;;;;;;;7.60;3.33;;;19.70;82.70;;;;;;4943934;28;20054;-86
2022/08/13 02:21:52;;;;;;;7.43;3.17;;;19.70;82.30;;;;;;4928956;29;20055;-85
2022/08/13 02:24:27;;;;;;;10.27;3.33;;;;;;;;;;4943604;29;20061;-85
2022/08/13 02:27:15;;;;;;;9.13;3.53;;;19.60;82.50;;;;;;4959592;29;20392;-85
2022/08/13 02:30:14;;;;;;;9.70;3.30;;;19.60;82.70;;;;;;4924896;29;20059;-85
2022/08/13 02:33:00;;;;;;;5.78;3.08;;;19.60;82.90;;;;;;4923668;29;20062;-85
2022/08/13 02:35:59;;;;;;;;;;;;;;;;;;;;;
2022/08/13 02:38:26;;;;;;;8.13;3.17;;;;;;;;;;4938172;29;20054;-85
2022/08/13 02:43:46;;;;;;;9.68;3.13;;;19.40;83.60;;;;;;4929404;29;20051;-85
2022/08/13 02:46:14;;;;;;;7.32;3.03;;;19.50;84.30;;;;;;4944182;29;20673;-85
2022/08/13 02:49:17;;;;;;;6.35;2.95;;;19.40;83.90;;;;;;4944538;29;20082;-85
2022/08/13 02:51:44;;;;;;;7.90;3.22;;;;;;;;;;4927887;29;20055;-84
2022/08/13 02:54:20;;;;;;;12.23;3.30;;;19.40;84.00;;;;;;4927364;29;20053;-85
2022/08/13 02:56:46;;;;;;;5.85;2.70;;;;;;;;;;4927258;29;20171;-85
2022/08/13 02:59:12;;;;;;;13.23;3.20;;;;;;;;;;4959062;29;20567;-85
2022/08/13 03:01:39;;;;;;;7.68;3.05;;;;;;;;;;4961713;28;20506;-85
2022/08/13 03:04:07;;;;;;;6.55;2.80;;;19.30;84.60;;;;;;4963861;28;20442;-85
2022/08/13 03:06:33;;;;;;;6.07;3.53;;;;;;;;;;4963473;28;20042;-84
2022/08/13 03:09:01;;;;;;;5.93;3.20;;;19.20;85.60;;;;;;4964369;28;20054;-85
2022/08/13 03:11:29;;;;;;;7.38;3.38;;;19.20;85.30;;;;;;4963593;28;20054;-85
2022/08/13 03:14:03;;;;;;;6.20;3.40;;;19.20;85.50;;;;;;4979864;28;20043;-85
2022/08/13 03:16:42;;;;;;;6.57;3.00;;;;;;;;;;4976763;28;20054;-85
2022/08/13 03:19:27;;;;;;;5.90;3.22;;;;;;;;;;4969704;28;20077;-85
2022/08/13 03:22:14;;;;;;;4.90;3.30;;;19.00;86.00;;;;;;4980408;28;20051;-85
2022/08/13 03:24:47;;;;;;;9.40;3.20;;;;;;;;;;4980130;28;20046;-85
2022/08/13 03:27:17;;;;;;;8.00;3.20;;;19.00;86.60;;;;;;4963433;28;20442;-85
2022/08/13 03:29:59;;;;;;;8.07;3.17;;;19.00;86.70;;;;;;4981099;28;20042;-85
2022/08/13 03:32:28;;;;;;;6.50;3.22;;;;;;;;;;4965110;28;20042;-85
2022/08/13 03:35:19;;;;;;;5.88;2.92;;;18.90;87.10;;;;;;4982152;28;20364;-85
2022/08/13 03:38:42;;;;;;;7.40;3.30;;;18.80;87.30;;;;;;4964721;28;20061;-85
2022/08/13 03:41:11;;;;;;;5.60;3.10;;;;;;;;;;4948107;28;20148;-85
2022/08/13 03:43:42;;;;;;;5.07;3.15;;;18.80;87.70;;;;;;4996851;28;20054;-85
2022/08/13 03:46:52;;;;;;;6.88;2.90;;;18.80;87.60;;;;;;4928975;28;20086;-85
2022/08/13 03:55:23;;;;;;;7.20;3.10;;;;;;;;;;4970875;28;20511;-85
2022/08/13 03:57:59;;;;;;;8.25;3.30;;;18.80;87.90;;;;;;4962407;28;20054;-85
2022/08/13 04:01:19;;;;;;;9.45;3.20;;;18.70;88.00;;;;;;4980281;28;20375;-85
2022/08/13 04:04:16;;;;;;;;;;;;;;;;;;;;;
2022/08/13 04:07:04;;;;;;;5.70;2.97;;;18.70;88.10;;;;;;4921333;29;20087;-85
2022/08/13 04:09:33;;;;;;;5.30;3.30;;;;;;;;;;4921549;29;20070;-84
2022/08/13 04:12:14;;;;;;;10.02;3.15;;;18.80;88.40;;;;;;4936105;29;20047;-85
2022/08/13 04:14:48;;;;;;;7.75;2.95;;;18.70;88.90;;;;;;4934535;29;20103;-84
2022/08/13 04:17:30;;;;;;;8.63;3.10;;;18.70;88.90;;;;;;4920997;29;20567;-85
2022/08/13 04:20:14;;;;;;;6.85;3.10;;;18.70;89.00;;;;;;4882562;29;20498;-84
2022/08/13 04:23:04;;;;;;;11.93;3.30;;;18.70;89.40;;;;;;4913399;29;20040;-85
2022/08/13 04:25:53;;;;;;;9.85;3.20;;;18.60;90.10;;;;;;4882337;29;20056;-85
2022/08/13 04:28:48;;;;;;;7.35;3.30;;;18.60;90.20;;;;;;4882678;29;20056;-85
2022/08/13 04:31:17;;;;;;;4.53;2.90;;;;;;;;;;4894014;29;20059;-85
2022/08/13 04:33:51;;;;;;;9.02;3.20;;;;;;;;;;4920346;29;20048;-86
2022/08/13 04:36:22;;;;;;;12.95;3.30;;;18.60;90.70;;;;;;4904588;29;20135;-85
2022/08/13 04:38:51;;;;;;;8.68;2.97;;;;;;;;;;4919517;29;20062;-85
2022/08/13 04:41:20;;;;;;;6.20;2.97;;;;;;;;;;4903881;29;20066;-85
2022/08/13 04:55:49;;;;;;;11.98;3.00;;;18.60;91.10;;;;;;4822971;29;20451;-85
2022/08/13 04:58:20;;;;;;;8.70;3.15;;;;;;;;;;4808104;29;20136;-84
2022/08/13 05:00:48;;;;;;;6.47;2.90;;;;;;;;;;4808226;29;20295;-84
2022/08/13 05:03:28;;;;;;;5.63;3.00;;;18.70;90.60;;;;;;4808091;29;20058;-85
2022/08/13 05:06:06;;;;;;;9.73;3.15;;;18.80;90.50;;;;;;4823956;29;20099;-85
2022/08/13 05:08:35;;;;;;;11.98;3.00;;;18.80;90.50;;;;;;4793020;29;20050;-84
2022/08/13 05:11:02;;;;;;;8.15;3.10;;;;;;;;;;4807816;29;20550;-85
2022/08/13 05:13:31;;;;;;;4.90;3.05;;;18.90;90.30;;;;;;4792751;29;20058;-85
2022/08/13 05:16:05;;;;;;;7.65;3.17;;;19.00;90.00;;;;;;4807674;29;20047;-85
2022/08/13 05:18:42;;;;;;;6.28;3.20;;;19.10;90.10;;;;;;4792638;29;20066;-85
2022/08/13 05:21:14;;;;;;;4.38;3.05;;;19.70;88.30;;;;;;4808174;29;20062;-85
2022/08/13 05:24:12;;;;;;;9.00;3.25;;;20.80;83.60;;;;;;4822833;29;20046;-85
2022/08/13 05:26:41;;;;;;;4.75;3.05;;;;;;;;;;4825623;29;20064;-85
2022/08/13 05:32:45;;;;;;;5.70;2.92;;;24.40;67.80;;;;;;4915905;28;20059;-86
2022/08/13 05:35:43;;;;;;;5.68;3.00;;;23.80;62.70;;;;;;4942145;28;20051;-86
2022/08/13 05:38:49;;;;;;;9.63;3.10;;;26.40;60.00;;;;;;4940179;28;20514;-86
2022/08/13 05:42:33;;;;;;;;;;;;;;;;;;;;;
2022/08/13 06:05:47;;;;;;;;;;;;;;;;;;;;;
2022/08/13 06:23:54;;;;;;;4.72;2.33;;;34.20;44.50;;;;;;5034408;23;20046;-60
2022/08/13 06:26:21;;;;;;;11.85;2.40;;;34.20;40.00;;;;;;5032643;28;20041;-62
2022/08/13 06:28:49;;;;;;;6.00;2.50;;;35.50;43.70;;;;;;5032720;28;20081;-62
2022/08/13 06:31:16;;;;;;;4.80;2.35;;;34.80;38.70;;;;;;5033006;28;20042;-62
2022/08/13 06:33:43;;;;;;;5.22;2.40;;;34.90;40.30;;;;;;5032976;28;20381;-62
2022/08/13 06:36:12;;;;;;;4.55;2.10;;;34.90;37.80;;;;;;5032847;28;20037;-62
2022/08/13 06:38:44;;;;;;;5.22;2.20;;;35.20;37.90;;;;;;5014877;28;20063;-62
2022/08/13 06:41:11;;;;;;;11.02;2.10;;;35.30;37.30;;;;;;5032994;28;20045;-62
2022/08/13 06:43:42;;;;;;;5.35;2.10;;;35.50;37.10;;;;;;5032606;28;20504;-62
2022/08/13 06:46:10;;;;;;;7.32;2.35;;;35.70;42.30;;;;;;5032781;28;20091;-62
2022/08/13 06:48:36;;;;;;;4.72;2.03;;;35.90;36.40;;;;;;5032689;28;20037;-62
2022/08/13 06:51:06;;;;;;;8.80;2.28;;;35.90;36.10;;;;;;5035350;28;20041;-62
2022/08/13 06:53:35;;;;;;;9.15;2.17;;;37.30;41.30;;;;;;5036292;28;20507;-62
2022/08/13 06:56:03;;;;;;;8.43;2.40;;;36.50;35.70;;;;;;5036288;28;20049;-62
2022/08/13 06:58:30;;;;;;;4.03;2.10;;;36.80;38.90;;;;;;5036297;28;20052;-62
2022/08/13 07:00:58;;;;;;;9.27;2.40;;;37.00;35.20;;;;;;5036352;28;20041;-61
2022/08/13 07:03:29;;;;;;;8.45;2.50;;;37.10;34.80;;;;;;5036461;28;20489;-62
2022/08/13 07:05:58;;;;;;;6.95;2.10;;;37.20;34.70;;;;;;5035998;28;20056;-62
2022/08/13 07:08:29;;;;;;;4.00;2.00;;;37.40;34.60;;;;;;5036172;28;20037;-61
2022/08/13 07:13:45;;;;;;;3.75;2.10;;;37.70;34.00;;;;;;5036141;28;20061;-62
2022/08/13 07:16:16;;;;;;;5.07;2.05;;;36.40;37.80;;;;;;5015346;28;20049;-62
2022/08/13 07:18:46;;;;;;;10.55;2.28;;;37.00;38.70;;;;;;5023117;28;20038;-62
2022/08/13 07:21:14;;;;;;;4.32;2.13;;;37.10;34.10;;;;;;5034639;28;20041;-61
2022/08/13 07:23:41;;;;;;;8.50;1.88;;;36.90;34.20;;;;;;5034767;28;20064;-61
2022/08/13 07:26:07;;;;;;;7.85;2.30;;;36.80;34.30;;;;;;5034804;28;20056;-61
2022/08/13 07:28:34;;;;;;;4.20;2.00;;;36.80;34.50;;;;;;5034509;28;20249;-62
2022/08/13 07:31:02;;;;;;;3.17;2.03;;;37.00;34.50;;;;;;5034210;28;20041;-61
2022/08/13 07:33:28;;;;;;;5.38;2.20;;;37.00;34.30;;;;;;5034336;28;20060;-61
2022/08/13 07:35:54;;;;;;;5.72;1.95;;;36.80;34.60;;;;;;5034424;28;20049;-61
2022/08/13 07:38:19;;;;;;;9.55;1.90;;;36.60;40.50;;;;;;5034617;28;20500;-61
2022/08/13 07:40:51;;;;;;;10.82;2.10;;;40.30;41.60;;;;;;5034384;28;20046;-61
2022/08/13 07:43:22;;;;;;;7.70;1.92;;;36.50;35.80;;;;;;5034587;28;20048;-61
2022/08/13 07:46:05;;;;;;;5.07;2.00;;;36.50;36.00;;;;;;5034955;28;20044;-61
2022/08/13 07:48:32;;;;;;;9.43;2.40;;;36.30;36.10;;;;;;5034440;28;20044;-61
2022/08/13 07:51:00;;;;;;;6.93;2.30;;;36.10;37.50;;;;;;5035088;28;20037;-62
2022/08/13 07:53:26;;;;;;;5.50;2.10;;;35.70;37.30;;;;;;5034136;28;20060;-59
2022/08/13 07:55:52;;;;;;;8.15;2.00;;;34.80;41.60;;;;;;5034292;28;20125;-59
2022/08/13 07:58:18;;;;;;;5.55;1.98;;;34.50;38.50;;;;;;5034053;28;20125;-59
2022/08/13 08:00:45;;;;;;;5.10;1.90;;;33.90;43.90;;;;;;5033342;28;20504;-59
2022/08/13 08:03:12;;;;;;;4.00;2.13;;;33.70;40.00;;;;;;5034072;28;20135;-59
2022/08/13 08:05:41;;;;;;;9.52;2.28;;;33.00;43.60;;;;;;5033807;28;20042;-59
2022/08/13 08:08:10;;;;;;;6.65;2.17;;;33.10;40.50;;;;;;5016219;28;20378;-59
2022/08/13 08:10:40;;;;;;;8.77;1.90;;;32.90;41.00;;;;;;5033761;28;20045;-59
2022/08/13 08:13:08;;;;;;;7.35;2.10;;;32.80;41.60;;;;;;5034068;28;20146;-59
2022/08/13 08:15:37;;;;;;;6.05;2.05;;;32.70;42.00;;;;;;5033794;28;20176;-59
2022/08/13 08:18:04;;;;;;;9.30;2.05;;;32.50;42.80;;;;;;5034007;28;20077;-59
2022/08/13 08:20:30;;;;;;;7.40;2.20;;;32.50;42.10;;;;;;5033487;28;20045;-59
2022/08/13 08:22:56;;;;;;;2.80;1.80;;;32.30;42.20;;;;;;5015549;28;20041;-59
2022/08/13 08:25:22;;;;;;;5.35;1.90;;;32.10;42.40;;;;;;5033676;28;20037;-59
2022/08/13 08:27:49;;;;;;;4.63;2.10;;;31.90;43.10;;;;;;5033783;28;20060;-59
2022/08/13 08:30:19;;;;;;;5.72;2.10;;;32.00;43.30;;;;;;5029130;28;20385;-59
2022/08/13 08:32:53;;;;;;;5.40;2.00;;;31.70;43.10;;;;;;5013780;28;20121;-59
2022/08/13 08:35:23;;;;;;;10.93;1.87;;;31.50;43.40;;;;;;4996311;28;20057;-59
2022/08/13 08:43:34;;;;;;;4.10;2.00;;;32.00;43.20;;;;;;5013107;28;20049;-61
2022/08/13 08:46:01;;;;;;;6.13;2.30;;;31.50;47.60;;;;;;4996396;28;20093;-59
2022/08/13 08:48:30;;;;;;;3.80;2.00;;;31.50;43.40;;;;;;5012895;28;20049;-59
2022/08/13 08:50:57;;;;;;;10.73;2.03;;;31.60;44.00;;;;;;4996050;28;20046;-59
2022/08/13 08:53:26;;;;;;;4.82;2.08;;;31.60;43.90;;;;;;5012839;28;20569;-59
2022/08/13 08:55:53;;;;;;;7.45;2.28;;;31.40;44.20;;;;;;5013444;28;20044;-59
2022/08/13 08:58:20;;;;;;;5.70;2.00;;;31.70;47.80;;;;;;5013243;28;20046;-59
2022/08/13 09:00:48;;;;;;;3.17;2.03;;;31.40;43.90;;;;;;5004279;28;20501;-59
2022/08/13 09:03:19;;;;;;;3.72;1.90;;;31.70;43.40;;;;;;5033300;28;20034;-59
2022/08/13 09:05:47;;;;;;;4.70;1.90;;;31.90;43.30;;;;;;5033149;28;20044;-59
2022/08/13 09:08:18;;;;;;;2.58;1.80;;;32.10;42.90;;;;;;5033085;28;20033;-59
2022/08/13 09:10:48;;;;;;;9.98;2.00;;;32.00;43.00;;;;;;5032633;28;20053;-59
2022/08/13 09:13:19;;;;;;;6.10;2.10;;;32.20;42.80;;;;;;5032048;28;20045;-59
2022/08/13 09:15:48;;;;;;;4.47;1.90;;;32.40;42.40;;;;;;5032487;28;20080;-59
2022/08/13 09:18:21;;;;;;;2.50;1.85;;;32.20;42.20;;;;;;5032828;28;20527;-59
2022/08/13 09:20:47;;;;;;;8.70;1.92;;;32.40;42.30;;;;;;5032577;28;20058;-60
2022/08/13 09:23:15;;;;;;;6.95;2.17;;;32.60;42.10;;;;;;5032737;28;20140;-59
2022/08/13 09:25:48;;;;;;;6.43;2.00;;;32.60;41.90;;;;;;5031340;28;20409;-59
2022/08/13 09:28:23;;;;;;;5.85;2.00;;;32.50;41.70;;;;;;5033031;28;20095;-60
2022/08/13 09:30:54;;;;;;;3.75;1.80;;;32.20;43.40;;;;;;5032218;28;20493;-59
2022/08/13 09:33:24;;;;;;;;;;;32.50;41.80;;;;;;5032715;28;20493;-59
2022/08/13 09:35:51;;;;;;;4.55;2.00;;;32.50;41.80;;;;;;5014636;28;19920;-60
2022/08/13 09:38:21;;;;;;;3.17;1.80;;;32.50;42.20;;;;;;5032653;28;20041;-60
2022/08/13 09:40:59;;;;;;;4.18;1.98;;;32.50;42.00;;;;;;5032350;28;20080;-59
2022/08/13 09:43:29;;;;;;;3.42;2.10;;;32.40;41.30;;;;;;5014723;28;20049;-60
2022/08/13 09:45:55;;;;;;;5.25;2.10;;;32.90;45.20;;;;;;5032140;28;20049;-59
2022/08/13 09:48:21;;;;;;;2.10;1.75;;;32.00;41.60;;;;;;5014341;28;20091;-60
2022/08/13 09:50:47;;;;;;;7.07;1.80;;;31.70;41.60;;;;;;5033027;28;20112;-60
2022/08/13 09:53:12;;;;;;;5.82;1.90;;;31.60;41.60;;;;;;5032860;28;20109;-59
2022/08/13 09:55:39;;;;;;;4.30;1.85;;;31.70;41.80;;;;;;5032856;28;20041;-59
2022/08/13 09:58:05;;;;;;;3.05;1.80;;;31.80;42.10;;;;;;5031693;28;20049;-59
2022/08/13 10:00:32;;;;;;;7.63;1.98;;;32.20;44.00;;;;;;5015412;28;20401;-59
2022/08/13 10:03:00;;;;;;;3.45;1.90;;;32.10;41.70;;;;;;5032766;28;20038;-59
2022/08/13 10:05:32;;;;;;;3.92;1.83;;;32.10;41.50;;;;;;5033078;28;20033;-59
2022/08/13 10:08:02;;;;;;;3.92;2.30;;;32.30;41.40;;;;;;5032863;28;20037;-59
2022/08/13 10:10:28;;;;;;;4.55;1.95;;;32.20;40.60;;;;;;5031911;28;20051;-59
2022/08/13 10:12:55;;;;;;;4.43;1.90;;;32.20;40.60;;;;;;5033006;28;20049;-59
2022/08/13 10:15:20;;;;;;;4.88;2.03;;;32.20;40.60;;;;;;5033036;28;20046;-59
2022/08/13 10:17:49;;;;;;;3.53;1.73;;;32.10;40.10;;;;;;5032986;28;20049;-59
2022/08/13 10:20:21;;;;;;;2.85;1.73;;;31.80;39.80;;;;;;5032809;28;20044;-59
2022/08/13 10:22:48;;;;;;;7.63;1.88;;;31.70;40.40;;;;;;5032963;28;20104;-59
2022/08/13 10:25:15;;;;;;;3.38;1.80;;;31.70;41.40;;;;;;5018370;28;20041;-59
2022/08/13 10:27:41;;;;;;;3.97;1.90;;;31.80;40.70;;;;;;5037012;28;20420;-59
2022/08/13 10:30:07;;;;;;;2.30;1.90;;;31.90;40.60;;;;;;5036799;28;20063;-60
2022/08/13 10:32:33;;;;;;;4.13;2.10;;;32.30;43.50;;;;;;5036971;28;20053;-59
2022/08/13 10:35:02;;;;;;;4.70;1.90;;;32.10;40.30;;;;;;5036952;28;20112;-60
2022/08/13 10:37:31;;;;;;;4.60;1.90;;;32.30;40.10;;;;;;5036689;28;20508;-59
2022/08/13 10:39:57;;;;;;;3.70;2.00;;;32.30;40.10;;;;;;5036677;28;20045;-59
2022/08/13 10:42:24;;;;;;;3.25;1.90;;;32.30;40.30;;;;;;5036636;28;20046;-59
2022/08/13 10:44:52;;;;;;;3.53;2.10;;;32.20;39.90;;;;;;5036400;28;20370;-59
2022/08/13 10:47:25;;;;;;;3.90;2.00;;;32.30;40.40;;;;;;5036381;28;20052;-59
2022/08/13 10:49:53;;;;;;;3.78;1.95;;;32.30;40.20;;;;;;5035911;28;20037;-59
2022/08/13 10:52:20;;;;;;;3.97;2.08;;;32.30;40.50;;;;;;5034828;28;20065;-59
2022/08/13 10:54:46;;;;;;;4.85;2.20;;;32.30;40.60;;;;;;5035343;28;20393;-59
2022/08/13 10:57:14;;;;;;;5.82;2.15;;;32.20;40.80;;;;;;5036201;28;20099;-59
2022/08/13 10:59:43;;;;;;;4.90;2.00;;;32.10;40.70;;;;;;5036208;28;20397;-60
2022/08/13 11:02:09;;;;;;;6.13;2.05;;;31.90;40.50;;;;;;5036211;28;20041;-59
2022/08/13 11:04:36;;;;;;;3.88;2.10;;;31.80;40.70;;;;;;5036472;28;20037;-60
2022/08/13 11:07:03;;;;;;;3.67;1.80;;;31.90;40.90;;;;;;5036324;28;20041;-59
2022/08/13 11:09:29;;;;;;;5.97;2.05;;;31.90;41.00;;;;;;5036206;28;20045;-59
2022/08/13 11:11:58;;;;;;;9.05;2.00;;;32.00;40.90;;;;;;5036120;28;20041;-60
2022/08/13 11:14:25;;;;;;;2.40;2.05;;;32.20;41.00;;;;;;5036031;28;20041;-60
2022/08/13 11:19:17;;;;;;;3.83;1.90;;;32.50;39.80;;;;;;5035921;28;20507;-59
2022/08/13 11:21:46;;;;;;;2.80;1.90;;;32.50;39.60;;;;;;5036053;28;20113;-59
2022/08/13 11:24:12;;;;;;;2.88;2.10;;;32.50;39.80;;;;;;5035747;28;20112;-60
2022/08/13 11:26:40;;;;;;;4.93;1.90;;;32.40;39.90;;;;;;5018062;28;20045;-59
2022/08/13 11:29:06;;;;;;;4.03;1.80;;;32.40;40.20;;;;;;5035909;28;20046;-59
2022/08/13 11:31:32;;;;;;;5.00;2.10;;;32.30;39.90;;;;;;5018049;28;20400;-59
2022/08/13 11:33:57;;;;;;;3.50;2.00;;;32.30;39.70;;;;;;5035677;28;20499;-59
2022/08/13 11:36:23;;;;;;;4.10;2.20;;;32.10;39.70;;;;;;5034684;28;20045;-59
2022/08/13 11:38:49;;;;;;;6.97;2.05;;;32.20;39.90;;;;;;5035636;28;20135;-60
2022/08/13 11:41:15;;;;;;;4.20;2.00;;;32.30;39.90;;;;;;5001444;28;20052;-60
2022/08/13 11:43:40;;;;;;;6.63;2.10;;;32.20;41.20;;;;;;5035626;28;20052;-59
2022/08/13 11:46:06;;;;;;;5.22;1.90;;;32.30;40.00;;;;;;5035603;28;20065;-60
2022/08/13 11:48:32;;;;;;;3.50;2.10;;;32.10;39.90;;;;;;5035567;28;20559;-60
2022/08/13 11:50:58;;;;;;;4.20;1.98;;;31.90;40.20;;;;;;5035369;28;20120;-60
2022/08/13 11:53:24;;;;;;;4.28;1.90;;;31.70;40.70;;;;;;5017570;28;20095;-60
2022/08/13 11:55:51;;;;;;;2.40;1.80;;;31.70;40.80;;;;;;5035398;28;20038;-60
2022/08/13 11:58:16;;;;;;;8.43;1.90;;;31.70;40.80;;;;;;5035382;28;20108;-59
2022/08/13 12:00:42;;;;;;;3.28;1.90;;;31.70;40.80;;;;;;5035152;28;20472;-60
2022/08/13 12:03:09;;;;;;;2.85;1.92;;;31.70;40.30;;;;;;5035252;28;20037;-59
2022/08/13 12:05:35;;;;;;;3.33;2.00;;;31.70;40.30;;;;;;5035291;28;20076;-59
2022/08/13 12:08:02;;;;;;;5.28;2.42;;;31.60;40.70;;;;;;5034969;28;20037;-60
2022/08/13 12:10:29;;;;;;;5.47;2.20;;;31.50;40.90;;;;;;5034992;28;20485;-60
2022/08/13 12:12:54;;;;;;;7.68;2.13;;;31.50;40.90;;;;;;5035154;28;20042;-60
2022/08/13 12:15:20;;;;;;;3.50;2.17;;;31.70;41.20;;;;;;5035012;28;20048;-60
2022/08/13 12:17:48;;;;;;;8.70;2.00;;;31.80;41.00;;;;;;5034979;28;20044;-59
2022/08/13 12:20:22;;;;;;;5.18;2.00;;;32.00;40.60;;;;;;5034764;28;20037;-59
2022/08/13 12:22:50;;;;;;;6.57;2.00;;;32.20;40.00;;;;;;5034519;28;20061;-59
2022/08/13 12:25:16;;;;;;;3.03;2.10;;;32.30;40.00;;;;;;5034905;28;20476;-59
2022/08/13 12:27:42;;;;;;;4.60;2.05;;;32.30;39.50;;;;;;5034662;28;20160;-59
2022/08/13 12:30:08;;;;;;;4.85;2.20;;;32.30;39.30;;;;;;5034737;28;20084;-60
2022/08/13 12:32:33;;;;;;;6.88;2.30;;;32.30;39.30;;;;;;5034486;28;20512;-59
2022/08/13 12:34:59;;;;;;;3.60;2.00;;;32.30;39.30;;;;;;5034515;28;20041;-60
2022/08/13 12:37:25;;;;;;;5.13;2.10;;;32.40;39.50;;;;;;5034457;28;20045;-59
2022/08/13 12:39:52;;;;;;;4.18;2.10;;;32.40;39.90;;;;;;5016656;28;20041;-59
2022/08/13 12:42:19;;;;;;;5.45;2.05;;;32.40;39.20;;;;;;5000450;28;20042;-60
2022/08/13 12:44:45;;;;;;;4.40;2.10;;;32.40;39.30;;;;;;5034265;28;20481;-60
2022/08/13 12:47:10;;;;;;;6.53;2.10;;;32.50;38.90;;;;;;5034282;28;20099;-60
2022/08/13 12:49:36;;;;;;;7.60;2.05;;;32.50;38.90;;;;;;5034210;28;20095;-60
2022/08/13 12:52:02;;;;;;;6.63;2.13;;;32.50;38.80;;;;;;5034488;28;20045;-60
2022/08/13 12:54:28;;;;;;;4.22;2.28;;;32.40;38.90;;;;;;5034446;28;20045;-60
2022/08/13 12:56:54;;;;;;;7.03;2.30;;;32.40;39.20;;;;;;5034220;28;20404;-60
2022/08/13 12:59:19;;;;;;;6.70;2.20;;;32.60;39.00;;;;;;5034119;28;20041;-60
2022/08/13 13:01:52;;;;;;;5.57;2.30;;;32.80;39.10;;;;;;5033843;28;20034;-60
2022/08/13 13:04:22;;;;;;;3.78;2.40;;;32.80;38.70;;;;;;5033633;28;20454;-60
2022/08/13 13:06:52;;;;;;;4.63;2.00;;;33.00;38.90;;;;;;5016345;28;20055;-60
2022/08/13 13:09:19;;;;;;;4.18;2.17;;;32.90;38.70;;;;;;5033895;28;20481;-61
2022/08/13 13:11:45;;;;;;;7.47;2.30;;;32.90;39.10;;;;;;5034043;28;20117;-63
2022/08/13 13:14:11;;;;;;;5.95;2.10;;;33.00;39.10;;;;;;5033882;28;20041;-64
2022/08/13 13:16:38;;;;;;;3.83;2.30;;;33.20;38.90;;;;;;5033794;28;20045;-62
2022/08/13 13:19:06;;;;;;;10.27;2.67;;;33.40;38.60;;;;;;5033665;28;20046;-62
2022/08/13 13:21:33;;;;;;;7.30;2.33;;;33.40;38.20;;;;;;5033716;28;20499;-66
2022/08/13 13:24:00;;;;;;;5.63;2.45;;;33.40;38.30;;;;;;5033437;28;20404;-66
2022/08/13 13:26:26;;;;;;;5.18;2.22;;;33.40;38.40;;;;;;5033648;28;20393;-68
2022/08/13 13:28:56;;;;;;;9.40;2.30;;;33.50;38.40;;;;;;5033580;28;20038;-66
2022/08/13 13:31:22;;;;;;;5.28;2.28;;;33.50;38.20;;;;;;5032927;28;20068;-68
2022/08/13 13:33:48;;;;;;;2.92;2.13;;;33.70;38.80;;;;;;5015562;28;20044;-69
2022/08/13 13:36:16;;;;;;;7.32;2.45;;;33.80;38.40;;;;;;5033485;28;20037;-68
2022/08/13 13:38:42;;;;;;;10.45;2.33;;;33.90;37.80;;;;;;5033150;28;20052;-67
2022/08/13 13:41:08;;;;;;;4.25;2.13;;;33.70;38.10;;;;;;5033500;28;20038;-69
2022/08/13 13:43:35;;;;;;;5.88;2.10;;;33.50;37.90;;;;;;5015417;28;20038;-68
2022/08/13 13:46:02;;;;;;;4.20;2.10;;;33.30;38.00;;;;;;5033100;28;20037;-67
2022/08/13 13:48:31;;;;;;;5.85;2.40;;;33.10;38.40;;;;;;5033377;28;20125;-69
2022/08/13 13:50:59;;;;;;;4.32;2.50;;;33.10;38.70;;;;;;5033271;28;20441;-63
2022/08/13 13:53:27;;;;;;;7.68;2.50;;;33.30;38.70;;;;;;5033230;28;20038;-63
2022/08/13 13:55:54;;;;;;;15.50;2.40;;;33.30;38.70;;;;;;5033278;28;20037;-64
2022/08/13 13:58:21;;;;;;;6.30;2.30;;;33.30;38.50;;;;;;5032636;28;20092;-63
2022/08/13 14:00:48;;;;;;;3.63;2.40;;;33.20;38.50;;;;;;5015374;28;20547;-63
2022/08/13 14:03:14;;;;;;;8.95;2.30;;;33.40;38.40;;;;;;5015818;28;20171;-63
2022/08/13 14:05:40;;;;;;;9.38;2.78;;;33.60;38.30;;;;;;5033088;28;20477;-63
2022/08/13 14:08:07;;;;;;;5.30;2.42;;;33.80;37.60;;;;;;5033115;28;20060;-64
2022/08/13 14:10:34;;;;;;;5.13;2.40;;;33.90;37.40;;;;;;5033146;28;20350;-63
2022/08/13 14:13:00;;;;;;;6.90;2.70;;;33.80;37.40;;;;;;5033033;28;20045;-63
2022/08/13 14:15:27;;;;;;;6.30;2.60;;;33.90;37.40;;;;;;5032995;28;20044;-64
2022/08/13 14:17:56;;;;;;;10.60;2.53;;;34.00;37.50;;;;;;5033007;28;20045;-68
2022/08/13 14:20:23;;;;;;;4.80;2.50;;;34.30;37.60;;;;;;5032810;28;20124;-69
2022/08/13 14:22:51;;;;;;;6.40;2.75;;;34.40;37.20;;;;;;5032815;28;20049;-69
2022/08/13 14:25:18;;;;;;;7.22;2.70;;;34.30;37.00;;;;;;5032918;28;20044;-69
2022/08/13 14:27:45;;;;;;;5.95;2.80;;;34.20;37.30;;;;;;5014437;28;20045;-69
2022/08/13 14:30:12;;;;;;;6.88;2.90;;;34.30;37.20;;;;;;5032401;28;20140;-68
2022/08/13 14:32:38;;;;;;;7.85;2.70;;;34.20;37.20;;;;;;5032800;28;20479;-68
2022/08/13 14:35:10;;;;;;;5.32;2.70;;;34.00;37.00;;;;;;5033235;28;20456;-69
2022/08/13 14:37:38;;;;;;;5.07;2.63;;;34.00;37.30;;;;;;5032558;28;20037;-68
2022/08/13 14:40:06;;;;;;;4.95;2.70;;;34.00;37.20;;;;;;5032609;28;20041;-69
2022/08/13 14:42:48;;;;;;;5.65;3.97;;;34.00;37.20;;;;;;5032931;28;20034;-69
2022/08/13 14:48:06;;;;;;;6.85;3.25;;;34.10;37.40;;;;;;5031361;28;20041;-68
2022/08/13 14:50:33;;;;;;;7.93;2.80;;;34.20;37.40;;;;;;5029569;28;20109;-69
2022/08/13 14:53:00;;;;;;;5.10;2.80;;;34.10;37.50;;;;;;5032450;28;20443;-69
2022/08/13 14:55:27;;;;;;;8.13;4.00;;;33.80;38.40;;;;;;5032755;28;20072;-69
2022/08/13 14:57:55;;;;;;;6.35;3.08;;;33.40;38.10;;;;;;5032593;28;20041;-69
2022/08/13 15:00:22;;;;;;;5.63;3.13;;;33.10;38.70;;;;;;5032829;28;20104;-69
2022/08/13 15:02:48;;;;;;;6.72;3.10;;;32.90;39.00;;;;;;5032604;28;20061;-67
2022/08/13 15:05:16;;;;;;;4.40;3.05;;;32.70;39.20;;;;;;5032118;28;20556;-68
2022/08/13 15:07:44;;;;;;;6.55;3.13;;;32.50;39.70;;;;;;5032713;28;20042;-69
2022/08/13 15:10:16;;;;;;;4.15;3.20;;;32.20;39.90;;;;;;5032583;28;20109;-69